sensor_id;sensor_type;location;lat;lon;timestamp;P1;durP1;ratioP1;P2;durP2;ratioP2
76284;SDS011;71676;50.998;7.098;2023-08-06T00:00:19;5.78;;;2.70;;
76284;SDS011;71676;50.998;7.098;2023-08-06T00:02:45;6.28;;;2.63;;
76284;SDS011;71676;50.998;7.098;2023-08-06T00:05:12;6.18;;;2.60;;
76284;SDS011;71676;50.998;7.098;2023-08-06T00:07:42;4.70;;;2.42;;
76284;SDS011;71676;50.998;7.098;2023-08-06T00:10:11;5.53;;;2.30;;
76284;SDS011;71676;50.998;7.098;2023-08-06T00:12:37;5.88;;;2.70;;
76284;SDS011;71676;50.998;7.098;2023-08-06T00:15:04;5.72;;;2.80;;
76284;SDS011;71676;50.998;7.098;2023-08-06T00:17:31;6.95;;;2.72;;
76284;SDS011;71676;50.998;7.098;2023-08-06T00:19:59;5.38;;;2.63;;
76284;SDS011;71676;50.998;7.098;2023-08-06T00:22:29;7.45;;;2.83;;
76284;SDS011;71676;50.998;7.098;2023-08-06T00:24:56;7.00;;;2.80;;
76284;SDS011;71676;50.998;7.098;2023-08-06T00:27:25;8.30;;;2.63;;
76284;SDS011;71676;50.998;7.098;2023-08-06T00:29:51;6.38;;;2.60;;
76284;SDS011;71676;50.998;7.098;2023-08-06T00:32:18;8.98;;;2.80;;
76284;SDS011;71676;50.998;7.098;2023-08-06T00:34:45;5.35;;;2.20;;
76284;SDS011;71676;50.998;7.098;2023-08-06T00:37:12;6.53;;;3.03;;
76284;SDS011;71676;50.998;7.098;2023-08-06T00:39:38;6.57;;;2.92;;
76284;SDS011;71676;50.998;7.098;2023-08-06T00:42:05;8.30;;;3.78;;
76284;SDS011;71676;50.998;7.098;2023-08-06T00:44:33;6.65;;;2.40;;
76284;SDS011;71676;50.998;7.098;2023-08-06T00:46:59;5.97;;;2.55;;
76284;SDS011;71676;50.998;7.098;2023-08-06T00:49:27;5.10;;;2.38;;
76284;SDS011;71676;50.998;7.098;2023-08-06T00:51:53;6.43;;;2.55;;
76284;SDS011;71676;50.998;7.098;2023-08-06T00:54:21;7.85;;;2.90;;
76284;SDS011;71676;50.998;7.098;2023-08-06T00:56:47;6.43;;;2.70;;
76284;SDS011;71676;50.998;7.098;2023-08-06T00:59:14;6.45;;;2.92;;
76284;SDS011;71676;50.998;7.098;2023-08-06T01:01:42;5.47;;;2.70;;
76284;SDS011;71676;50.998;7.098;2023-08-06T01:04:10;6.68;;;3.10;;
76284;SDS011;71676;50.998;7.098;2023-08-06T01:06:39;9.60;;;2.70;;
76284;SDS011;71676;50.998;7.098;2023-08-06T01:11:44;5.15;;;2.35;;
76284;SDS011;71676;50.998;7.098;2023-08-06T01:14:23;6.57;;;2.55;;
76284;SDS011;71676;50.998;7.098;2023-08-06T01:16:56;6.93;;;2.80;;
76284;SDS011;71676;50.998;7.098;2023-08-06T01:19:24;7.30;;;2.90;;
76284;SDS011;71676;50.998;7.098;2023-08-06T01:21:52;6.55;;;3.10;;
76284;SDS011;71676;50.998;7.098;2023-08-06T01:24:19;6.85;;;2.90;;
76284;SDS011;71676;50.998;7.098;2023-08-06T01:26:48;7.38;;;3.15;;
76284;SDS011;71676;50.998;7.098;2023-08-06T01:29:22;6.20;;;3.00;;
76284;SDS011;71676;50.998;7.098;2023-08-06T01:31:54;8.35;;;2.45;;
76284;SDS011;71676;50.998;7.098;2023-08-06T01:34:23;6.72;;;3.00;;
76284;SDS011;71676;50.998;7.098;2023-08-06T01:36:53;5.18;;;2.72;;
76284;SDS011;71676;50.998;7.098;2023-08-06T01:39:20;5.88;;;2.65;;
76284;SDS011;71676;50.998;7.098;2023-08-06T01:41:47;6.13;;;2.50;;
76284;SDS011;71676;50.998;7.098;2023-08-06T01:44:14;6.50;;;2.67;;
76284;SDS011;71676;50.998;7.098;2023-08-06T01:46:41;6.35;;;2.58;;
76284;SDS011;71676;50.998;7.098;2023-08-06T01:49:08;6.72;;;2.58;;
76284;SDS011;71676;50.998;7.098;2023-08-06T01:51:35;7.00;;;2.63;;
76284;SDS011;71676;50.998;7.098;2023-08-06T01:54:03;6.20;;;2.97;;
76284;SDS011;71676;50.998;7.098;2023-08-06T01:56:29;6.80;;;2.90;;
76284;SDS011;71676;50.998;7.098;2023-08-06T01:58:56;6.82;;;2.80;;
76284;SDS011;71676;50.998;7.098;2023-08-06T02:01:22;6.18;;;2.80;;
76284;SDS011;71676;50.998;7.098;2023-08-06T02:03:49;6.03;;;2.40;;
76284;SDS011;71676;50.998;7.098;2023-08-06T02:06:16;5.97;;;2.83;;
76284;SDS011;71676;50.998;7.098;2023-08-06T02:08:42;6.10;;;2.50;;
76284;SDS011;71676;50.998;7.098;2023-08-06T02:11:10;5.15;;;2.70;;
76284;SDS011;71676;50.998;7.098;2023-08-06T02:13:40;7.20;;;2.83;;
76284;SDS011;71676;50.998;7.098;2023-08-06T02:16:06;5.60;;;2.60;;
76284;SDS011;71676;50.998;7.098;2023-08-06T02:18:33;6.20;;;2.63;;
76284;SDS011;71676;50.998;7.098;2023-08-06T02:21:00;8.27;;;2.40;;
76284;SDS011;71676;50.998;7.098;2023-08-06T02:23:29;5.05;;;2.65;;
76284;SDS011;71676;50.998;7.098;2023-08-06T02:25:59;7.70;;;3.00;;
76284;SDS011;71676;50.998;7.098;2023-08-06T02:28:28;6.53;;;3.08;;
76284;SDS011;71676;50.998;7.098;2023-08-06T02:30:55;6.43;;;2.70;;
76284;SDS011;71676;50.998;7.098;2023-08-06T02:33:21;9.15;;;3.05;;
76284;SDS011;71676;50.998;7.098;2023-08-06T02:35:48;7.10;;;2.85;;
76284;SDS011;71676;50.998;7.098;2023-08-06T02:38:15;5.90;;;3.20;;
76284;SDS011;71676;50.998;7.098;2023-08-06T02:40:44;5.13;;;2.35;;
76284;SDS011;71676;50.998;7.098;2023-08-06T02:43:11;5.50;;;2.42;;
76284;SDS011;71676;50.998;7.098;2023-08-06T02:45:40;6.45;;;2.22;;
76284;SDS011;71676;50.998;7.098;2023-08-06T02:48:06;6.80;;;2.88;;
76284;SDS011;71676;50.998;7.098;2023-08-06T02:50:37;7.68;;;2.72;;
76284;SDS011;71676;50.998;7.098;2023-08-06T02:53:05;5.88;;;2.60;;
76284;SDS011;71676;50.998;7.098;2023-08-06T02:55:31;6.43;;;2.60;;
76284;SDS011;71676;50.998;7.098;2023-08-06T02:57:59;6.00;;;2.55;;
76284;SDS011;71676;50.998;7.098;2023-08-06T03:00:25;8.20;;;2.80;;
76284;SDS011;71676;50.998;7.098;2023-08-06T03:02:54;7.97;;;2.78;;
76284;SDS011;71676;50.998;7.098;2023-08-06T03:05:20;6.80;;;2.60;;
76284;SDS011;71676;50.998;7.098;2023-08-06T03:07:47;8.25;;;2.70;;
76284;SDS011;71676;50.998;7.098;2023-08-06T03:10:13;5.90;;;2.78;;
76284;SDS011;71676;50.998;7.098;2023-08-06T03:12:40;4.90;;;2.63;;
76284;SDS011;71676;50.998;7.098;2023-08-06T03:15:07;5.47;;;2.65;;
76284;SDS011;71676;50.998;7.098;2023-08-06T03:17:34;6.28;;;2.65;;
76284;SDS011;71676;50.998;7.098;2023-08-06T03:20:02;7.82;;;3.20;;
76284;SDS011;71676;50.998;7.098;2023-08-06T03:22:29;7.88;;;3.13;;
76284;SDS011;71676;50.998;7.098;2023-08-06T03:24:56;6.40;;;3.10;;
76284;SDS011;71676;50.998;7.098;2023-08-06T03:27:25;8.60;;;3.20;;
76284;SDS011;71676;50.998;7.098;2023-08-06T03:29:51;8.15;;;3.45;;
76284;SDS011;71676;50.998;7.098;2023-08-06T03:32:18;6.40;;;3.00;;
76284;SDS011;71676;50.998;7.098;2023-08-06T03:34:45;7.30;;;3.15;;
76284;SDS011;71676;50.998;7.098;2023-08-06T03:37:13;7.13;;;2.65;;
76284;SDS011;71676;50.998;7.098;2023-08-06T03:39:39;5.70;;;2.65;;
76284;SDS011;71676;50.998;7.098;2023-08-06T03:42:06;5.28;;;2.53;;
76284;SDS011;71676;50.998;7.098;2023-08-06T03:44:33;5.55;;;2.47;;
76284;SDS011;71676;50.998;7.098;2023-08-06T03:46:59;6.85;;;3.10;;
76284;SDS011;71676;50.998;7.098;2023-08-06T03:49:26;5.95;;;2.50;;
76284;SDS011;71676;50.998;7.098;2023-08-06T03:51:52;8.93;;;2.90;;
76284;SDS011;71676;50.998;7.098;2023-08-06T03:54:20;8.60;;;2.40;;
76284;SDS011;71676;50.998;7.098;2023-08-06T03:56:47;5.40;;;2.00;;
76284;SDS011;71676;50.998;7.098;2023-08-06T03:59:13;6.63;;;3.00;;
76284;SDS011;71676;50.998;7.098;2023-08-06T04:01:40;5.38;;;2.30;;
76284;SDS011;71676;50.998;7.098;2023-08-06T04:04:07;6.68;;;2.50;;
76284;SDS011;71676;50.998;7.098;2023-08-06T04:06:33;6.57;;;2.58;;
76284;SDS011;71676;50.998;7.098;2023-08-06T04:09:00;6.13;;;2.42;;
76284;SDS011;71676;50.998;7.098;2023-08-06T04:11:28;7.32;;;2.88;;
76284;SDS011;71676;50.998;7.098;2023-08-06T04:13:55;5.35;;;2.55;;
76284;SDS011;71676;50.998;7.098;2023-08-06T04:16:21;7.45;;;2.80;;
76284;SDS011;71676;50.998;7.098;2023-08-06T04:18:48;6.35;;;2.60;;
76284;SDS011;71676;50.998;7.098;2023-08-06T04:21:14;5.25;;;2.80;;
76284;SDS011;71676;50.998;7.098;2023-08-06T04:23:41;5.88;;;2.47;;
76284;SDS011;71676;50.998;7.098;2023-08-06T04:26:08;7.30;;;2.80;;
76284;SDS011;71676;50.998;7.098;2023-08-06T04:28:36;5.45;;;2.65;;
76284;SDS011;71676;50.998;7.098;2023-08-06T04:31:02;6.38;;;2.58;;
76284;SDS011;71676;50.998;7.098;2023-08-06T04:33:29;7.30;;;2.42;;
76284;SDS011;71676;50.998;7.098;2023-08-06T04:35:55;6.88;;;2.70;;
76284;SDS011;71676;50.998;7.098;2023-08-06T04:38:23;5.82;;;2.53;;
76284;SDS011;71676;50.998;7.098;2023-08-06T04:40:50;5.35;;;2.20;;
76284;SDS011;71676;50.998;7.098;2023-08-06T04:43:16;5.78;;;2.72;;
76284;SDS011;71676;50.998;7.098;2023-08-06T04:45:46;5.05;;;2.40;;
76284;SDS011;71676;50.998;7.098;2023-08-06T04:48:13;6.43;;;2.55;;
76284;SDS011;71676;50.998;7.098;2023-08-06T04:50:43;9.07;;;2.33;;
76284;SDS011;71676;50.998;7.098;2023-08-06T04:53:10;9.90;;;2.55;;
76284;SDS011;71676;50.998;7.098;2023-08-06T04:55:36;5.90;;;2.40;;
76284;SDS011;71676;50.998;7.098;2023-08-06T04:58:03;5.10;;;2.03;;
76284;SDS011;71676;50.998;7.098;2023-08-06T05:00:30;7.07;;;2.20;;
76284;SDS011;71676;50.998;7.098;2023-08-06T05:02:59;4.85;;;2.20;;
76284;SDS011;71676;50.998;7.098;2023-08-06T05:05:26;4.80;;;2.17;;
76284;SDS011;71676;50.998;7.098;2023-08-06T05:07:53;8.63;;;2.50;;
76284;SDS011;71676;50.998;7.098;2023-08-06T05:10:21;7.40;;;2.55;;
76284;SDS011;71676;50.998;7.098;2023-08-06T05:12:50;5.93;;;2.10;;
76284;SDS011;71676;50.998;7.098;2023-08-06T05:15:17;8.38;;;3.20;;
76284;SDS011;71676;50.998;7.098;2023-08-06T05:17:43;7.47;;;2.88;;
76284;SDS011;71676;50.998;7.098;2023-08-06T05:20:12;6.05;;;2.55;;
76284;SDS011;71676;50.998;7.098;2023-08-06T05:22:38;4.97;;;2.15;;
76284;SDS011;71676;50.998;7.098;2023-08-06T05:25:05;5.38;;;2.17;;
76284;SDS011;71676;50.998;7.098;2023-08-06T05:27:32;6.95;;;2.42;;
76284;SDS011;71676;50.998;7.098;2023-08-06T05:29:59;6.05;;;2.70;;
76284;SDS011;71676;50.998;7.098;2023-08-06T05:32:26;5.60;;;2.40;;
76284;SDS011;71676;50.998;7.098;2023-08-06T05:34:52;7.15;;;2.55;;
76284;SDS011;71676;50.998;7.098;2023-08-06T05:37:20;12.85;;;5.93;;
76284;SDS011;71676;50.998;7.098;2023-08-06T05:39:47;7.63;;;3.10;;
76284;SDS011;71676;50.998;7.098;2023-08-06T05:42:13;5.95;;;2.63;;
76284;SDS011;71676;50.998;7.098;2023-08-06T05:44:40;5.85;;;2.63;;
76284;SDS011;71676;50.998;7.098;2023-08-06T05:47:07;6.18;;;2.53;;
76284;SDS011;71676;50.998;7.098;2023-08-06T05:49:33;5.88;;;2.50;;
76284;SDS011;71676;50.998;7.098;2023-08-06T05:52:00;6.78;;;2.63;;
76284;SDS011;71676;50.998;7.098;2023-08-06T05:54:29;6.70;;;2.38;;
76284;SDS011;71676;50.998;7.098;2023-08-06T05:56:55;6.55;;;2.22;;
76284;SDS011;71676;50.998;7.098;2023-08-06T05:59:22;6.85;;;2.40;;
76284;SDS011;71676;50.998;7.098;2023-08-06T06:01:48;6.43;;;2.55;;
76284;SDS011;71676;50.998;7.098;2023-08-06T06:04:15;8.27;;;3.30;;
76284;SDS011;71676;50.998;7.098;2023-08-06T06:06:42;8.32;;;2.70;;
76284;SDS011;71676;50.998;7.098;2023-08-06T06:09:09;5.97;;;2.55;;
76284;SDS011;71676;50.998;7.098;2023-08-06T06:11:37;6.57;;;2.60;;
76284;SDS011;71676;50.998;7.098;2023-08-06T06:14:05;5.18;;;2.40;;
76284;SDS011;71676;50.998;7.098;2023-08-06T06:16:32;5.05;;;2.08;;
76284;SDS011;71676;50.998;7.098;2023-08-06T06:18:59;4.65;;;1.80;;
76284;SDS011;71676;50.998;7.098;2023-08-06T06:21:26;5.63;;;2.10;;
76284;SDS011;71676;50.998;7.098;2023-08-06T06:23:53;4.82;;;2.20;;
76284;SDS011;71676;50.998;7.098;2023-08-06T06:26:19;4.47;;;1.90;;
76284;SDS011;71676;50.998;7.098;2023-08-06T06:28:47;7.85;;;2.45;;
76284;SDS011;71676;50.998;7.098;2023-08-06T06:31:14;6.10;;;2.40;;
76284;SDS011;71676;50.998;7.098;2023-08-06T06:33:41;5.60;;;2.20;;
76284;SDS011;71676;50.998;7.098;2023-08-06T06:36:07;5.65;;;2.10;;
76284;SDS011;71676;50.998;7.098;2023-08-06T06:38:34;3.63;;;1.77;;
76284;SDS011;71676;50.998;7.098;2023-08-06T06:41:01;5.15;;;2.03;;
76284;SDS011;71676;50.998;7.098;2023-08-06T06:43:28;3.63;;;1.80;;
76284;SDS011;71676;50.998;7.098;2023-08-06T06:45:57;4.97;;;1.73;;
76284;SDS011;71676;50.998;7.098;2023-08-06T06:48:24;5.00;;;1.75;;
76284;SDS011;71676;50.998;7.098;2023-08-06T06:50:51;3.47;;;1.77;;
76284;SDS011;71676;50.998;7.098;2023-08-06T06:53:18;3.85;;;1.73;;
76284;SDS011;71676;50.998;7.098;2023-08-06T06:55:44;4.78;;;2.00;;
76284;SDS011;71676;50.998;7.098;2023-08-06T06:58:14;3.40;;;1.60;;
76284;SDS011;71676;50.998;7.098;2023-08-06T07:00:41;4.60;;;1.92;;
76284;SDS011;71676;50.998;7.098;2023-08-06T07:03:09;3.47;;;1.80;;
76284;SDS011;71676;50.998;7.098;2023-08-06T07:05:36;4.53;;;2.00;;
76284;SDS011;71676;50.998;7.098;2023-08-06T07:08:02;4.85;;;1.80;;
76284;SDS011;71676;50.998;7.098;2023-08-06T07:10:29;5.53;;;2.17;;
76284;SDS011;71676;50.998;7.098;2023-08-06T07:12:55;4.40;;;1.98;;
76284;SDS011;71676;50.998;7.098;2023-08-06T07:15:22;4.55;;;2.83;;
76284;SDS011;71676;50.998;7.098;2023-08-06T07:17:49;3.85;;;2.13;;
76284;SDS011;71676;50.998;7.098;2023-08-06T07:20:17;4.60;;;2.40;;
76284;SDS011;71676;50.998;7.098;2023-08-06T07:22:44;3.67;;;2.00;;
76284;SDS011;71676;50.998;7.098;2023-08-06T07:25:11;5.40;;;2.13;;
76284;SDS011;71676;50.998;7.098;2023-08-06T07:27:38;4.60;;;2.28;;
76284;SDS011;71676;50.998;7.098;2023-08-06T07:30:05;3.33;;;1.70;;
76284;SDS011;71676;50.998;7.098;2023-08-06T07:32:32;4.05;;;1.67;;
76284;SDS011;71676;50.998;7.098;2023-08-06T07:34:59;4.05;;;1.50;;
76284;SDS011;71676;50.998;7.098;2023-08-06T07:37:29;4.05;;;1.50;;
76284;SDS011;71676;50.998;7.098;2023-08-06T07:39:56;5.05;;;1.80;;
76284;SDS011;71676;50.998;7.098;2023-08-06T07:42:22;2.88;;;1.55;;
76284;SDS011;71676;50.998;7.098;2023-08-06T07:44:51;3.25;;;1.60;;
76284;SDS011;71676;50.998;7.098;2023-08-06T07:47:18;4.55;;;1.58;;
76284;SDS011;71676;50.998;7.098;2023-08-06T07:49:45;4.28;;;1.77;;
76284;SDS011;71676;50.998;7.098;2023-08-06T07:52:11;3.63;;;1.60;;
76284;SDS011;71676;50.998;7.098;2023-08-06T07:54:39;3.92;;;1.63;;
76284;SDS011;71676;50.998;7.098;2023-08-06T07:57:06;2.90;;;1.65;;
76284;SDS011;71676;50.998;7.098;2023-08-06T07:59:33;2.72;;;1.45;;
76284;SDS011;71676;50.998;7.098;2023-08-06T08:01:59;2.88;;;1.50;;
76284;SDS011;71676;50.998;7.098;2023-08-06T08:04:26;2.33;;;1.40;;
76284;SDS011;71676;50.998;7.098;2023-08-06T08:06:53;3.35;;;1.80;;
76284;SDS011;71676;50.998;7.098;2023-08-06T08:09:19;2.65;;;1.58;;
76284;SDS011;71676;50.998;7.098;2023-08-06T08:11:47;3.15;;;1.23;;
76284;SDS011;71676;50.998;7.098;2023-08-06T08:14:15;2.35;;;1.50;;
76284;SDS011;71676;50.998;7.098;2023-08-06T08:16:42;1.92;;;1.15;;
76284;SDS011;71676;50.998;7.098;2023-08-06T08:19:08;2.00;;;1.20;;
76284;SDS011;71676;50.998;7.098;2023-08-06T08:21:35;2.75;;;1.42;;
76284;SDS011;71676;50.998;7.098;2023-08-06T08:24:04;1.15;;;0.90;;
76284;SDS011;71676;50.998;7.098;2023-08-06T08:26:31;2.15;;;1.23;;
76284;SDS011;71676;50.998;7.098;2023-08-06T08:28:59;1.52;;;1.08;;
76284;SDS011;71676;50.998;7.098;2023-08-06T08:31:25;2.28;;;1.30;;
76284;SDS011;71676;50.998;7.098;2023-08-06T08:33:53;1.55;;;1.00;;
76284;SDS011;71676;50.998;7.098;2023-08-06T08:36:20;2.42;;;1.30;;
76284;SDS011;71676;50.998;7.098;2023-08-06T08:38:47;1.40;;;1.00;;
76284;SDS011;71676;50.998;7.098;2023-08-06T08:41:15;2.67;;;1.27;;
76284;SDS011;71676;50.998;7.098;2023-08-06T08:43:42;1.40;;;1.17;;
76284;SDS011;71676;50.998;7.098;2023-08-06T08:46:10;3.40;;;1.25;;
76284;SDS011;71676;50.998;7.098;2023-08-06T08:48:39;1.83;;;1.15;;
76284;SDS011;71676;50.998;7.098;2023-08-06T08:51:06;4.05;;;1.20;;
76284;SDS011;71676;50.998;7.098;2023-08-06T08:53:34;1.33;;;1.17;;
76284;SDS011;71676;50.998;7.098;2023-08-06T08:56:04;1.10;;;1.00;;
76284;SDS011;71676;50.998;7.098;2023-08-06T08:58:32;4.60;;;1.92;;
76284;SDS011;71676;50.998;7.098;2023-08-06T09:00:58;2.95;;;1.42;;
76284;SDS011;71676;50.998;7.098;2023-08-06T09:03:27;2.38;;;1.40;;
76284;SDS011;71676;50.998;7.098;2023-08-06T09:05:54;2.20;;;1.10;;
76284;SDS011;71676;50.998;7.098;2023-08-06T09:08:24;4.90;;;1.30;;
76284;SDS011;71676;50.998;7.098;2023-08-06T09:10:56;1.35;;;1.20;;
76284;SDS011;71676;50.998;7.098;2023-08-06T09:13:24;2.63;;;1.17;;
76284;SDS011;71676;50.998;7.098;2023-08-06T09:15:50;2.78;;;1.30;;
76284;SDS011;71676;50.998;7.098;2023-08-06T09:18:24;2.72;;;1.48;;
76284;SDS011;71676;50.998;7.098;2023-08-06T09:20:54;3.55;;;1.50;;
76284;SDS011;71676;50.998;7.098;2023-08-06T09:23:20;2.10;;;1.40;;
76284;SDS011;71676;50.998;7.098;2023-08-06T09:25:53;2.08;;;1.48;;
76284;SDS011;71676;50.998;7.098;2023-08-06T09:28:20;2.20;;;1.60;;
76284;SDS011;71676;50.998;7.098;2023-08-06T09:30:47;4.72;;;2.67;;
76284;SDS011;71676;50.998;7.098;2023-08-06T09:33:14;4.55;;;1.90;;
76284;SDS011;71676;50.998;7.098;2023-08-06T09:35:46;4.50;;;2.15;;
76284;SDS011;71676;50.998;7.098;2023-08-06T09:38:13;4.68;;;2.40;;
76284;SDS011;71676;50.998;7.098;2023-08-06T09:40:39;3.88;;;2.30;;
76284;SDS011;71676;50.998;7.098;2023-08-06T09:43:06;3.83;;;2.28;;
76284;SDS011;71676;50.998;7.098;2023-08-06T09:45:33;5.65;;;2.45;;
76284;SDS011;71676;50.998;7.098;2023-08-06T09:48:02;5.10;;;2.67;;
76284;SDS011;71676;50.998;7.098;2023-08-06T09:50:31;5.07;;;2.70;;
76284;SDS011;71676;50.998;7.098;2023-08-06T09:53:00;4.63;;;2.63;;
76284;SDS011;71676;50.998;7.098;2023-08-06T09:55:28;5.75;;;2.85;;
76284;SDS011;71676;50.998;7.098;2023-08-06T09:57:55;6.28;;;3.20;;
76284;SDS011;71676;50.998;7.098;2023-08-06T10:00:22;5.80;;;3.40;;
76284;SDS011;71676;50.998;7.098;2023-08-06T10:02:49;6.40;;;3.60;;
76284;SDS011;71676;50.998;7.098;2023-08-06T10:05:19;6.80;;;3.90;;
76284;SDS011;71676;50.998;7.098;2023-08-06T10:07:47;6.22;;;3.33;;
76284;SDS011;71676;50.998;7.098;2023-08-06T10:10:17;7.68;;;3.50;;
76284;SDS011;71676;50.998;7.098;2023-08-06T10:12:46;7.15;;;3.63;;
76284;SDS011;71676;50.998;7.098;2023-08-06T10:15:17;7.95;;;3.58;;
76284;SDS011;71676;50.998;7.098;2023-08-06T10:17:47;7.07;;;3.53;;
76284;SDS011;71676;50.998;7.098;2023-08-06T10:20:17;6.75;;;3.78;;
76284;SDS011;71676;50.998;7.098;2023-08-06T10:22:46;7.60;;;3.67;;
76284;SDS011;71676;50.998;7.098;2023-08-06T10:25:26;7.47;;;3.95;;
76284;SDS011;71676;50.998;7.098;2023-08-06T10:27:57;7.55;;;2.40;;
76284;SDS011;71676;50.998;7.098;2023-08-06T10:30:24;5.90;;;2.38;;
76284;SDS011;71676;50.998;7.098;2023-08-06T10:32:52;5.43;;;2.00;;
76284;SDS011;71676;50.998;7.098;2023-08-06T10:35:32;2.55;;;1.08;;
76284;SDS011;71676;50.998;7.098;2023-08-06T10:38:05;1.92;;;0.90;;
76284;SDS011;71676;50.998;7.098;2023-08-06T10:40:35;1.55;;;0.93;;
76284;SDS011;71676;50.998;7.098;2023-08-06T10:43:02;0.60;;;0.50;;
76284;SDS011;71676;50.998;7.098;2023-08-06T10:45:33;0.60;;;0.60;;
76284;SDS011;71676;50.998;7.098;2023-08-06T10:48:01;1.58;;;0.80;;
76284;SDS011;71676;50.998;7.098;2023-08-06T10:50:28;0.65;;;0.65;;
76284;SDS011;71676;50.998;7.098;2023-08-06T10:52:56;1.15;;;0.80;;
76284;SDS011;71676;50.998;7.098;2023-08-06T10:55:24;1.58;;;0.80;;
76284;SDS011;71676;50.998;7.098;2023-08-06T10:57:53;2.13;;;1.30;;
76284;SDS011;71676;50.998;7.098;2023-08-06T11:00:20;3.30;;;1.10;;
76284;SDS011;71676;50.998;7.098;2023-08-06T11:02:48;1.95;;;1.30;;
76284;SDS011;71676;50.998;7.098;2023-08-06T11:05:16;3.53;;;1.30;;
76284;SDS011;71676;50.998;7.098;2023-08-06T11:07:43;1.85;;;1.35;;
76284;SDS011;71676;50.998;7.098;2023-08-06T11:10:10;2.22;;;1.42;;
76284;SDS011;71676;50.998;7.098;2023-08-06T11:12:38;2.35;;;1.50;;
76284;SDS011;71676;50.998;7.098;2023-08-06T11:15:07;2.67;;;1.30;;
76284;SDS011;71676;50.998;7.098;2023-08-06T11:17:34;2.17;;;1.20;;
76284;SDS011;71676;50.998;7.098;2023-08-06T11:20:02;2.35;;;1.45;;
76284;SDS011;71676;50.998;7.098;2023-08-06T11:22:30;4.47;;;1.70;;
76284;SDS011;71676;50.998;7.098;2023-08-06T11:24:57;2.83;;;1.50;;
76284;SDS011;71676;50.998;7.098;2023-08-06T11:27:26;4.15;;;1.67;;
76284;SDS011;71676;50.998;7.098;2023-08-06T11:29:53;3.95;;;1.65;;
76284;SDS011;71676;50.998;7.098;2023-08-06T11:32:21;3.65;;;1.63;;
76284;SDS011;71676;50.998;7.098;2023-08-06T11:34:48;4.55;;;1.90;;
76284;SDS011;71676;50.998;7.098;2023-08-06T11:37:14;4.85;;;2.33;;
76284;SDS011;71676;50.998;7.098;2023-08-06T11:39:45;5.05;;;2.00;;
76284;SDS011;71676;50.998;7.098;2023-08-06T11:42:13;5.30;;;2.00;;
76284;SDS011;71676;50.998;7.098;2023-08-06T11:44:40;5.70;;;1.88;;
76284;SDS011;71676;50.998;7.098;2023-08-06T11:47:11;4.60;;;1.92;;
76284;SDS011;71676;50.998;7.098;2023-08-06T11:49:41;6.70;;;2.33;;
76284;SDS011;71676;50.998;7.098;2023-08-06T11:52:11;8.75;;;2.45;;
76284;SDS011;71676;50.998;7.098;2023-08-06T11:54:40;6.40;;;2.60;;
76284;SDS011;71676;50.998;7.098;2023-08-06T11:57:07;6.35;;;2.35;;
76284;SDS011;71676;50.998;7.098;2023-08-06T11:59:34;5.43;;;2.25;;
76284;SDS011;71676;50.998;7.098;2023-08-06T12:02:01;6.22;;;2.40;;
76284;SDS011;71676;50.998;7.098;2023-08-06T12:04:30;7.28;;;2.40;;
76284;SDS011;71676;50.998;7.098;2023-08-06T12:07:05;4.50;;;2.10;;
76284;SDS011;71676;50.998;7.098;2023-08-06T12:09:33;14.65;;;2.63;;
76284;SDS011;71676;50.998;7.098;2023-08-06T12:12:01;6.15;;;2.60;;
76284;SDS011;71676;50.998;7.098;2023-08-06T12:14:28;6.47;;;2.75;;
76284;SDS011;71676;50.998;7.098;2023-08-06T12:16:55;5.28;;;2.47;;
76284;SDS011;71676;50.998;7.098;2023-08-06T12:19:21;6.95;;;2.47;;
76284;SDS011;71676;50.998;7.098;2023-08-06T12:21:48;7.38;;;2.67;;
76284;SDS011;71676;50.998;7.098;2023-08-06T12:24:16;6.90;;;2.50;;
76284;SDS011;71676;50.998;7.098;2023-08-06T12:26:43;6.20;;;2.65;;
76284;SDS011;71676;50.998;7.098;2023-08-06T12:29:09;7.40;;;2.33;;
76284;SDS011;71676;50.998;7.098;2023-08-06T12:31:36;6.43;;;2.20;;
76284;SDS011;71676;50.998;7.098;2023-08-06T12:34:03;4.82;;;2.15;;
76284;SDS011;71676;50.998;7.098;2023-08-06T12:36:29;5.20;;;2.00;;
76284;SDS011;71676;50.998;7.098;2023-08-06T12:38:56;6.05;;;2.40;;
76284;SDS011;71676;50.998;7.098;2023-08-06T12:41:24;5.43;;;2.05;;
76284;SDS011;71676;50.998;7.098;2023-08-06T12:43:50;6.07;;;2.40;;
76284;SDS011;71676;50.998;7.098;2023-08-06T12:46:17;8.02;;;2.42;;
76284;SDS011;71676;50.998;7.098;2023-08-06T12:48:44;6.85;;;2.58;;
76284;SDS011;71676;50.998;7.098;2023-08-06T12:51:10;11.52;;;3.72;;
76284;SDS011;71676;50.998;7.098;2023-08-06T12:53:37;5.72;;;2.20;;
76284;SDS011;71676;50.998;7.098;2023-08-06T12:56:04;7.80;;;2.15;;
76284;SDS011;71676;50.998;7.098;2023-08-06T12:58:32;5.82;;;2.00;;
76284;SDS011;71676;50.998;7.098;2023-08-06T13:00:58;4.70;;;2.00;;
76284;SDS011;71676;50.998;7.098;2023-08-06T13:03:25;7.65;;;2.75;;
76284;SDS011;71676;50.998;7.098;2023-08-06T13:05:52;7.00;;;2.40;;
76284;SDS011;71676;50.998;7.098;2023-08-06T13:08:19;4.18;;;2.00;;
76284;SDS011;71676;50.998;7.098;2023-08-06T13:10:46;6.65;;;2.55;;
76284;SDS011;71676;50.998;7.098;2023-08-06T13:13:13;4.45;;;2.20;;
76284;SDS011;71676;50.998;7.098;2023-08-06T13:15:41;5.88;;;2.08;;
76284;SDS011;71676;50.998;7.098;2023-08-06T13:18:07;9.23;;;2.00;;
76284;SDS011;71676;50.998;7.098;2023-08-06T13:20:34;5.28;;;2.28;;
76284;SDS011;71676;50.998;7.098;2023-08-06T13:23:04;6.05;;;2.20;;
76284;SDS011;71676;50.998;7.098;2023-08-06T13:25:31;5.55;;;2.10;;
76284;SDS011;71676;50.998;7.098;2023-08-06T13:28:01;6.25;;;2.20;;
76284;SDS011;71676;50.998;7.098;2023-08-06T13:30:28;6.82;;;2.50;;
76284;SDS011;71676;50.998;7.098;2023-08-06T13:32:56;5.70;;;2.33;;
76284;SDS011;71676;50.998;7.098;2023-08-06T13:35:23;5.65;;;2.00;;
76284;SDS011;71676;50.998;7.098;2023-08-06T13:37:50;6.30;;;2.42;;
76284;SDS011;71676;50.998;7.098;2023-08-06T13:40:17;7.32;;;2.45;;
76284;SDS011;71676;50.998;7.098;2023-08-06T13:42:44;5.28;;;2.25;;
76284;SDS011;71676;50.998;7.098;2023-08-06T13:45:10;4.80;;;2.13;;
76284;SDS011;71676;50.998;7.098;2023-08-06T13:47:37;5.95;;;2.03;;
76284;SDS011;71676;50.998;7.098;2023-08-06T13:50:05;5.28;;;1.77;;
76284;SDS011;71676;50.998;7.098;2023-08-06T13:52:32;5.25;;;2.03;;
76284;SDS011;71676;50.998;7.098;2023-08-06T13:55:00;8.32;;;2.70;;
76284;SDS011;71676;50.998;7.098;2023-08-06T13:57:28;5.90;;;2.47;;
76284;SDS011;71676;50.998;7.098;2023-08-06T13:59:55;8.75;;;2.67;;
76284;SDS011;71676;50.998;7.098;2023-08-06T14:02:22;5.75;;;2.28;;
76284;SDS011;71676;50.998;7.098;2023-08-06T14:04:49;5.25;;;2.15;;
76284;SDS011;71676;50.998;7.098;2023-08-06T14:07:16;6.22;;;2.17;;
76284;SDS011;71676;50.998;7.098;2023-08-06T14:09:43;6.05;;;2.42;;
76284;SDS011;71676;50.998;7.098;2023-08-06T14:12:10;6.47;;;2.50;;
76284;SDS011;71676;50.998;7.098;2023-08-06T14:14:37;5.75;;;2.50;;
76284;SDS011;71676;50.998;7.098;2023-08-06T14:17:03;8.32;;;2.60;;
76284;SDS011;71676;50.998;7.098;2023-08-06T14:19:30;7.10;;;2.25;;
76284;SDS011;71676;50.998;7.098;2023-08-06T14:21:57;4.90;;;2.30;;
76284;SDS011;71676;50.998;7.098;2023-08-06T14:24:25;8.93;;;3.53;;
76284;SDS011;71676;50.998;7.098;2023-08-06T14:26:51;8.95;;;3.47;;
76284;SDS011;71676;50.998;7.098;2023-08-06T14:29:18;5.93;;;2.47;;
76284;SDS011;71676;50.998;7.098;2023-08-06T14:31:45;7.95;;;2.75;;
76284;SDS011;71676;50.998;7.098;2023-08-06T14:34:11;6.57;;;2.28;;
76284;SDS011;71676;50.998;7.098;2023-08-06T14:36:38;6.70;;;2.47;;
76284;SDS011;71676;50.998;7.098;2023-08-06T14:39:04;5.40;;;2.45;;
76284;SDS011;71676;50.998;7.098;2023-08-06T14:41:32;7.97;;;2.58;;
76284;SDS011;71676;50.998;7.098;2023-08-06T14:43:59;7.15;;;2.78;;
76284;SDS011;71676;50.998;7.098;2023-08-06T14:46:28;7.35;;;2.90;;
76284;SDS011;71676;50.998;7.098;2023-08-06T14:48:55;8.00;;;2.92;;
76284;SDS011;71676;50.998;7.098;2023-08-06T14:51:21;7.20;;;3.15;;